Time;durP1;ratioP1;P1;durP2;ratioP2;P2;SDS_P1;SDS_P2;PMS_P1;PMS_P2;Temp;Humidity;BMP_temperature;BMP_pressure;BME280_temperature;BME280_humidity;BME280_pressure;Samples;Min_cycle;Max_cycle;Signal;HPM_P1;HPM_P2
2022/11/06 00:01:18;;;;;;;;;;;;;;;20.41;67.84;100615.19;7407822;19;1623;-66
2022/11/06 00:03:47;;;;;;;;;;;;;;;20.42;67.68;100605.31;7408331;19;996;-66
2022/11/06 00:09:03;;;;;;;;;;;;;;;20.43;67.65;100609.66;7409779;19;1420;-66
2022/11/06 00:11:31;;;;;;;;;;;;;;;20.40;68.02;100602.75;7405930;19;1841;-66
2022/11/06 00:13:59;;;;;;;;;;;;;;;20.36;67.54;100611.25;7408217;19;1630;-66
2022/11/06 00:16:28;;;;;;;;;;;;;;;20.39;67.54;100617.19;7405303;19;1383;-66
2022/11/06 00:18:56;;;;;;;;;;;;;;;20.38;67.73;100593.16;7408615;19;1000;-66
2022/11/06 00:21:25;;;;;;;;;;;;;;;20.38;67.73;100614.66;7407424;19;1497;-66
2022/11/06 00:23:54;;;;;;;;;;;;;;;20.36;67.49;100601.34;7407189;19;1682;-66
2022/11/06 00:26:26;;;;;;;;;;;;;;;20.37;67.64;100600.38;7408154;19;1375;-66
2022/11/06 00:28:55;;;;;;;;;;;;;;;20.36;67.79;100605.91;7407459;19;1626;-66
2022/11/06 00:31:24;;;;;;;;;;;;;;;20.34;67.73;100605.19;7405427;19;1829;-61
2022/11/06 00:33:53;;;;;;;;;;;;;;;20.37;67.56;100597.69;7407796;19;1000;-61
2022/11/06 00:36:22;;;;;;;;;;;;;;;20.36;67.47;100595.16;7407053;19;1769;-60
2022/11/06 00:38:52;;;;;;;;;;;;;;;20.33;67.53;100596.28;7406145;19;1732;-61
2022/11/06 00:41:21;;;;;;;;;;;;;;;20.33;67.34;100601.66;7407548;19;1370;-61
2022/11/06 00:43:53;;;;;;;;;;;;;;;20.30;66.87;100596.59;7407222;19;1610;-61
2022/11/06 00:46:21;;;;;;;;;;;;;;;20.33;67.17;100596.28;7406446;19;1614;-61
2022/11/06 00:48:50;;;;;;;;;;;;;;;20.33;67.17;100590.91;7405580;19;1337;-63
2022/11/06 00:51:19;;;;;;;;;;;;;;;20.32;67.41;100585.69;7403801;19;1853;-63
2022/11/06 00:53:48;;;;;;;;;;;;;;;20.32;67.26;100604.50;7406802;19;1368;-62
2022/11/06 00:56:17;;;;;;;;;;;;;;;20.29;67.60;100597.56;7406149;19;1337;-66
2022/11/06 00:58:45;;;;;;;;;;;;;;;20.23;67.84;100596.34;7407388;19;1294;-67
2022/11/06 01:01:17;;;;;;;;;;;;;;;20.31;67.64;100613.53;7342613;19;13820;-63
2022/11/06 01:03:46;;;;;;;;;;;;;;;20.37;67.28;100615.63;7402528;19;1339;-65
2022/11/06 01:06:16;;;;;;;;;;;;;;;20.37;67.38;100611.13;7403533;19;1362;-65
2022/11/06 01:08:44;;;;;;;;;;;;;;;20.36;67.45;100595.16;7404603;19;1354;-66
2022/11/06 01:11:14;;;;;;;;;;;;;;;20.37;67.28;100596.81;7401007;19;1873;-66
2022/11/06 01:13:43;;;;;;;;;;;;;;;20.43;67.86;100612.34;7403940;19;1534;-66
2022/11/06 01:16:12;;;;;;;;;;;;;;;20.39;67.92;100601.06;7403032;19;1530;-67
2022/11/06 01:18:44;;;;;;;;;;;;;;;20.41;67.57;100603.59;7406490;19;1554;-66
2022/11/06 01:21:13;;;;;;;;;;;;;;;20.44;67.59;100608.69;7405422;19;1642;-69
2022/11/06 01:23:42;;;;;;;;;;;;;;;20.41;67.35;100577.59;7405061;19;1530;-66
2022/11/06 01:26:11;;;;;;;;;;;;;;;20.40;67.92;100613.50;7405539;19;1322;-68
2022/11/06 01:28:40;;;;;;;;;;;;;;;20.37;67.99;100591.47;7403233;19;1669;-68
2022/11/06 01:31:09;;;;;;;;;;;;;;;20.35;68.00;100599.69;7403914;19;1852;-68
2022/11/06 01:33:38;;;;;;;;;;;;;;;20.34;68.19;100595.28;7405149;19;1318;-69
2022/11/06 01:36:09;;;;;;;;;;;;;;;20.33;68.36;100592.75;7404408;19;1453;-69
2022/11/06 01:38:38;;;;;;;;;;;;;;;20.34;68.13;100603.34;7405617;19;1499;-69
2022/11/06 01:41:06;;;;;;;;;;;;;;;20.33;68.13;100593.59;7404996;19;1289;-68
2022/11/06 01:43:46;;;;;;;;;;;;;;;20.36;67.91;100611.25;7402643;19;1538;-68
2022/11/06 01:46:15;;;;;;;;;;;;;;;20.32;67.95;100597.28;7404903;19;1539;-69
2022/11/06 01:48:45;;;;;;;;;;;;;;;20.31;68.19;100592.06;7402713;19;1722;-68
2022/11/06 01:51:16;;;;;;;;;;;;;;;20.34;68.12;100606.03;7402518;19;1903;-68
2022/11/06 01:53:45;;;;;;;;;;;;;;;20.33;68.00;100623.13;7405864;19;1530;-68
2022/11/06 01:56:14;;;;;;;;;;;;;;;20.33;68.17;100616.91;7403436;19;1298;-68
2022/11/06 01:58:44;;;;;;;;;;;;;;;20.33;68.04;100616.91;7402654;19;1608;-67
2022/11/06 02:01:12;;;;;;;;;;;;;;;20.31;68.23;100613.53;7404285;19;1535;-67
2022/11/06 02:03:42;;;;;;;;;;;;;;;20.84;66.82;100615.56;7404472;19;1452;-69
2022/11/06 02:06:11;;;;;;;;;;;;;;;21.14;65.60;100605.44;7402142;19;1800;-69
2022/11/06 02:08:42;;;;;;;;;;;;;;;21.01;66.06;100612.06;7406342;19;1583;-69
2022/11/06 02:11:10;;;;;;;;;;;;;;;20.93;66.70;100628.09;7403419;19;1861;-69
2022/11/06 02:13:45;;;;;;;;;;;;;;;20.81;66.82;100615.84;7409118;19;1522;-69
2022/11/06 02:16:17;;;;;;;;;;;;;;;21.08;66.31;100624.88;7408928;19;1659;-69
2022/11/06 02:18:52;;;;;;;;;;;;;;;21.30;65.51;100616.34;7412141;19;1465;-69
2022/11/06 02:21:35;;;;;;;;;;;;;;;21.62;64.39;100621.19;7410886;19;1635;-68
2022/11/06 02:24:31;;;;;;;;;;;;;;;21.63;64.14;100609.44;7411831;19;1590;-69
2022/11/06 02:27:09;;;;;;;;;;;;;;;21.14;65.94;100624.25;7411885;19;1638;-68
2022/11/06 02:29:40;;;;;;;;;;;;;;;21.03;66.41;100618.13;7408977;19;1680;-68
2022/11/06 02:32:11;;;;;;;;;;;;;;;21.32;65.45;100627.78;7406269;19;1857;-66
2022/11/06 02:34:41;;;;;;;;;;;;;;;21.60;64.60;100623.19;7409083;19;1643;-67
2022/11/06 02:37:11;;;;;;;;;;;;;;;22.02;63.53;100611.72;7410936;19;1516;-66
2022/11/06 02:39:42;;;;;;;;;;;;;;;21.83;63.81;100623.53;7409413;19;1452;-67
2022/11/06 02:42:15;;;;;;;;;;;;;;;21.43;65.22;100622.22;7412829;19;1560;-66
2022/11/06 02:44:44;;;;;;;;;;;;;;;21.20;65.83;100624.47;7411555;19;1453;-67
2022/11/06 02:47:15;;;;;;;;;;;;;;;21.35;65.35;100640.94;7407887;19;1676;-66
2022/11/06 02:49:46;;;;;;;;;;;;;;;21.67;64.53;100636.03;7408284;19;1543;-66
2022/11/06 02:52:17;;;;;;;;;;;;;;;21.52;64.85;100630.34;7408368;19;1853;-67
2022/11/06 02:54:48;;;;;;;;;;;;;;;21.26;65.86;100648.06;7410710;19;1577;-67
2022/11/06 02:57:21;;;;;;;;;;;;;;;21.50;65.10;100635.03;7410855;19;937;-66
2022/11/06 02:59:52;;;;;;;;;;;;;;;21.67;64.49;100636.88;7408779;19;1631;-67
2022/11/06 03:02:23;;;;;;;;;;;;;;;21.55;64.78;100638.13;7406431;19;1735;-67
2022/11/06 03:04:54;;;;;;;;;;;;;;;21.32;65.72;100646.63;7409300;19;1554;-67
2022/11/06 03:07:27;;;;;;;;;;;;;;;21.38;65.26;100647.84;7410103;19;1626;-67
2022/11/06 03:09:56;;;;;;;;;;;;;;;21.62;64.69;100631.09;7409961;19;1542;-67
2022/11/06 03:12:29;;;;;;;;;;;;;;;21.57;64.72;100636.13;7408059;19;1849;-67
2022/11/06 03:15:01;;;;;;;;;;;;;;;21.38;65.49;100647.84;7410924;19;971;-67
2022/11/06 03:17:34;;;;;;;;;;;;;;;21.35;65.57;100637.41;7410704;19;1579;-67
2022/11/06 03:20:07;;;;;;;;;;;;;;;21.62;64.87;100649.94;7407614;19;1650;-67
2022/11/06 03:22:40;;;;;;;;;;;;;;;21.67;64.36;100644.13;7409515;19;1472;-67
2022/11/06 03:25:15;;;;;;;;;;;;;;;21.44;65.38;100645.41;7407696;19;1618;-67
2022/11/06 03:27:51;;;;;;;;;;;;;;;21.28;65.91;100663.22;7409733;19;1523;-67
2022/11/06 03:30:19;;;;;;;;;;;;;;;21.50;65.30;100664.66;7408771;19;1464;-68
2022/11/06 03:32:49;;;;;;;;;;;;;;;21.69;64.44;100656.41;7408387;19;1849;-67
2022/11/06 03:35:21;;;;;;;;;;;;;;;21.56;65.23;100661.31;7409634;19;1634;-67
2022/11/06 03:37:53;;;;;;;;;;;;;;;21.33;65.50;100664.47;7408272;19;1535;-66
2022/11/06 03:40:24;;;;;;;;;;;;;;;21.44;65.15;100661.56;7407295;19;1523;-67
2022/11/06 03:42:57;;;;;;;;;;;;;;;21.63;64.63;100662.41;7409497;19;1531;-68
2022/11/06 03:45:26;;;;;;;;;;;;;;;21.65;65.03;100660.41;7409257;19;1504;-67
2022/11/06 03:47:58;;;;;;;;;;;;;;;21.44;65.46;100666.94;7409097;19;1103;-67
2022/11/06 03:50:31;;;;;;;;;;;;;;;21.38;65.65;100651.38;7409109;19;1607;-67
2022/11/06 03:53:02;;;;;;;;;;;;;;;21.66;64.71;100643.25;7408018;19;1492;-67
2022/11/06 03:55:34;;;;;;;;;;;;;;;21.80;64.18;100664.22;7404940;19;1590;-67
2022/11/06 03:58:08;;;;;;;;;;;;;;;21.66;64.75;100667.47;7408969;19;1464;-67
2022/11/06 04:00:37;;;;;;;;;;;;;;;21.36;65.63;100658.75;7408611;19;1538;-67
2022/11/06 04:03:09;;;;;;;;;;;;;;;21.39;65.47;100674.59;7408959;19;1612;-68
2022/11/06 04:05:41;;;;;;;;;;;;;;;21.65;65.03;100680.09;7405827;19;1607;-67
2022/11/06 04:16:20;;;;;;;;;;;;;;;21.59;64.94;100675.31;7407578;19;1349;-67
2022/11/06 04:18:49;;;;;;;;;;;;;;;21.75;64.50;100669.22;7407818;19;1476;-67
2022/11/06 04:21:25;;;;;;;;;;;;;;;21.62;65.01;100658.00;7407743;19;1806;-67
2022/11/06 04:26:44;;;;;;;;;;;;;;;21.47;65.48;100676.56;7405469;19;1668;-67
2022/11/06 04:29:20;;;;;;;;;;;;;;;21.61;64.99;100673.31;7405915;19;1684;-67
2022/11/06 04:31:52;;;;;;;;;;;;;;;21.69;64.66;100664.47;7405534;19;1849;-67
2022/11/06 04:34:23;;;;;;;;;;;;;;;21.51;65.43;100682.50;7407951;19;1590;-68
2022/11/06 04:36:57;;;;;;;;;;;;;;;21.34;65.60;100676.91;7408124;19;1249;-67
2022/11/06 04:39:30;;;;;;;;;;;;;;;21.58;65.16;100675.47;7407636;19;1382;-67
2022/11/06 04:42:02;;;;;;;;;;;;;;;21.76;64.51;100673.59;7408050;19;1705;-67
2022/11/06 04:44:35;;;;;;;;;;;;;;;21.65;64.98;100665.78;7406635;19;1676;-67
2022/11/06 04:47:05;;;;;;;;;;;;;;;21.41;65.53;100667.22;7407453;19;1634;-67
2022/11/06 04:49:35;;;;;;;;;;;;;;;21.52;65.40;100678.78;7406765;19;1612;-68
2022/11/06 04:52:06;;;;;;;;;;;;;;;21.65;64.89;100671.19;7406395;19;1857;-66
2022/11/06 04:54:34;;;;;;;;;;;;;;;21.85;64.25;100683.44;7404255;19;1078;-68
2022/11/06 04:57:03;;;;;;;;;;;;;;;21.68;64.83;100684.31;7407713;19;1645;-68
2022/11/06 04:59:36;;;;;;;;;;;;;;;21.48;65.38;100683.63;7406638;19;1689;-68
2022/11/06 05:02:05;;;;;;;;;;;;;;;21.42;65.56;100674.28;7406145;19;1444;-67
2022/11/06 05:04:33;;;;;;;;;;;;;;;21.26;66.00;100676.81;7405174;19;1639;-68
2022/11/06 05:07:02;;;;;;;;;;;;;;;21.27;65.85;100678.53;7404982;19;1706;-68
2022/11/06 05:09:30;;;;;;;;;;;;;;;21.19;66.01;100695.41;7407506;19;1129;-68
2022/11/06 05:11:59;;;;;;;;;;;;;;;21.22;65.80;100681.66;7406300;19;1853;-68
2022/11/06 05:14:27;;;;;;;;;;;;;;;21.13;65.89;100685.28;7405225;19;1552;-68
2022/11/06 05:16:58;;;;;;;;;;;;;;;21.19;65.79;100705.34;7405722;19;1631;-67
2022/11/06 05:19:26;;;;;;;;;;;;;;;21.15;65.95;100698.53;7406425;19;1473;-68
2022/11/06 05:24:35;;;;;;;;;;;;;;;20.98;66.15;100711.81;7406650;19;1277;-68
2022/11/06 05:27:04;;;;;;;;;;;;;;;20.99;66.43;100716.19;7407127;19;977;-68
2022/11/06 05:29:32;;;;;;;;;;;;;;;20.99;66.09;100718.03;7405582;19;1752;-68
2022/11/06 05:32:03;;;;;;;;;;;;;;;20.95;66.12;100722.00;7404647;19;1870;-68
2022/11/06 05:34:32;;;;;;;;;;;;;;;20.94;66.09;100728.41;7404393;19;1584;-68
2022/11/06 05:37:00;;;;;;;;;;;;;;;20.89;66.55;100726.16;7406706;19;992;-68
2022/11/06 05:39:28;;;;;;;;;;;;;;;20.86;66.24;100731.81;7401190;19;1796;-68
2022/11/06 05:41:56;;;;;;;;;;;;;;;20.85;66.28;100732.84;7405845;19;1642;-68
2022/11/06 05:44:25;;;;;;;;;;;;;;;20.83;66.53;100730.28;7404365;19;1357;-68
2022/11/06 05:46:53;;;;;;;;;;;;;;;20.89;66.43;100736.91;7404775;19;1665;-68
2022/11/06 05:49:24;;;;;;;;;;;;;;;20.84;66.24;100745.41;7405785;19;1556;-68
2022/11/06 05:51:54;;;;;;;;;;;;;;;20.81;66.48;100758.28;7403475;19;1916;-67
2022/11/06 05:54:22;;;;;;;;;;;;;;;20.76;66.52;100753.38;7404156;19;1543;-68
2022/11/06 05:56:50;;;;;;;;;;;;;;;20.77;66.51;100756.88;7404363;19;1712;-68
2022/11/06 05:59:19;;;;;;;;;;;;;;;20.76;66.56;100769.50;7402203;19;1338;-68
2022/11/06 06:01:47;;;;;;;;;;;;;;;20.76;66.42;100771.34;7405644;19;1507;-68
2022/11/06 06:04:15;;;;;;;;;;;;;;;20.74;66.53;100760.72;7404956;19;1452;-68
2022/11/06 06:06:46;;;;;;;;;;;;;;;20.71;66.73;100776.28;7404020;19;1518;-68
2022/11/06 06:09:14;;;;;;;;;;;;;;;20.74;66.34;100782.22;7403434;19;1744;-68
2022/11/06 06:11:43;;;;;;;;;;;;;;;20.71;66.57;100770.91;7401578;19;1846;-68
2022/11/06 06:14:11;;;;;;;;;;;;;;;20.68;66.47;100771.22;7403467;19;1598;-68
2022/11/06 06:16:39;;;;;;;;;;;;;;;20.68;66.63;100788.19;7402800;19;1602;-68
2022/11/06 06:19:08;;;;;;;;;;;;;;;20.66;66.33;100790.16;7404796;19;1584;-68
2022/11/06 06:21:36;;;;;;;;;;;;;;;20.64;66.36;100795.69;7404571;19;1670;-68
2022/11/06 06:24:08;;;;;;;;;;;;;;;20.66;66.49;100784.81;7403780;19;1528;-68
2022/11/06 06:26:36;;;;;;;;;;;;;;;20.64;66.57;100792.16;7402316;19;1774;-67
2022/11/06 06:29:05;;;;;;;;;;;;;;;20.65;66.38;100788.47;7403882;19;1605;-68
2022/11/06 06:31:33;;;;;;;;;;;;;;;20.65;66.89;100801.91;7403373;19;1853;-66
2022/11/06 06:34:01;;;;;;;;;;;;;;;20.64;67.24;100801.06;7403245;19;1666;-60
2022/11/06 06:36:29;;;;;;;;;;;;;;;20.67;66.68;100794.53;7404251;19;1709;-67
2022/11/06 06:38:58;;;;;;;;;;;;;;;20.64;67.05;100814.50;7402123;19;1759;-63
2022/11/06 06:41:29;;;;;;;;;;;;;;;20.65;66.83;100815.34;7403415;19;1503;-65
2022/11/06 06:43:57;;;;;;;;;;;;;;;20.68;66.94;100815.06;7402429;19;1684;-64
2022/11/06 06:46:25;;;;;;;;;;;;;;;20.74;67.01;100808.25;7402283;19;1121;-64
2022/11/06 06:48:53;;;;;;;;;;;;;;;20.70;67.84;100805.00;7403651;19;1260;-71
2022/11/06 06:51:22;;;;;;;;;;;;;;;20.70;67.43;100818.44;7403452;19;1429;-64
2022/11/06 06:53:50;;;;;;;;;;;;;;;20.68;67.39;100828.50;7401578;19;1866;-66
2022/11/06 06:56:18;;;;;;;;;;;;;;;20.68;67.96;100816.91;7403111;19;1545;-64
2022/11/06 06:58:49;;;;;;;;;;;;;;;20.67;68.02;100826.78;7402979;19;1206;-69
2022/11/06 07:01:18;;;;;;;;;;;;;;;20.66;67.61;100814.34;7409077;19;1341;-67
2022/11/06 07:03:46;;;;;;;;;;;;;;;20.70;67.83;100799.63;7409825;19;1097;-66
2022/11/06 07:06:14;;;;;;;;;;;;;;;20.71;68.20;100821.97;7407778;19;1641;-65
2022/11/06 07:08:42;;;;;;;;;;;;;;;20.73;67.77;100825.34;7409727;19;1403;-64
2022/11/06 07:11:12;;;;;;;;;;;;;;;20.68;67.66;100827.66;7410109;19;1363;-64
2022/11/06 07:13:40;;;;;;;;;;;;;;;20.68;70.49;100825.81;7407262;19;1860;-69
2022/11/06 07:16:13;;;;;;;;;;;;;;;20.73;69.95;100820.84;7409604;19;1535;-67
2022/11/06 07:18:42;;;;;;;;;;;;;;;20.70;69.03;100813.06;7410044;19;1003;-72
2022/11/06 07:21:12;;;;;;;;;;;;;;;20.76;69.41;100822.41;7409415;19;1741;-66
2022/11/06 07:23:40;;;;;;;;;;;;;;;20.75;69.07;100812.63;7409350;19;1294;-62
2022/11/06 07:26:09;;;;;;;;;;;;;;;20.74;69.66;100830.59;7408971;19;1231;-67
2022/11/06 07:28:37;;;;;;;;;;;;;;;20.69;69.12;100823.97;7406307;19;1341;-74
2022/11/06 07:31:07;;;;;;;;;;;;;;;20.66;68.25;100831.31;7401688;19;1476;-67
2022/11/06 07:33:38;;;;;;;;;;;;;;;20.72;66.62;100837.97;7406957;19;1849;-66
2022/11/06 07:36:07;;;;;;;;;;;;;;;20.74;69.60;100840.50;7408707;19;1568;-67
2022/11/06 07:38:36;;;;;;;;;;;;;;;20.82;68.82;100837.94;7409047;19;1535;-65
2022/11/06 07:41:05;;;;;;;;;;;;;;;20.85;69.00;100833.13;7408744;19;1337;-68
2022/11/06 07:43:33;;;;;;;;;;;;;;;20.94;68.88;100841.28;7408246;19;1234;-65
2022/11/06 07:46:02;;;;;;;;;;;;;;;20.88;68.76;100833.81;7405029;19;1282;-63
2022/11/06 07:48:31;;;;;;;;;;;;;;;20.92;68.89;100833.38;7408814;19;1019;-67
2022/11/06 07:51:03;;;;;;;;;;;;;;;20.94;68.74;100839.44;7407630;19;1630;-67
2022/11/06 07:53:32;;;;;;;;;;;;;;;20.97;68.93;100835.63;7407286;19;1845;-69
2022/11/06 07:56:00;;;;;;;;;;;;;;;20.98;69.27;100837.31;7404039;19;1159;-67
2022/11/06 07:58:28;;;;;;;;;;;;;;;20.97;69.33;100822.16;7407679;19;1216;-66
2022/11/06 08:00:57;;;;;;;;;;;;;;;20.99;69.71;100839.00;7408638;19;1420;-66
2022/11/06 08:03:28;;;;;;;;;;;;;;;21.05;69.33;100833.91;7408665;19;1261;-66
2022/11/06 08:05:56;;;;;;;;;;;;;;;21.06;69.71;100826.69;7406498;19;1464;-68
2022/11/06 08:08:30;;;;;;;;;;;;;;;21.16;69.20;100842.78;7408050;19;1613;-62
2022/11/06 08:11:03;;;;;;;;;;;;;;;21.06;69.43;100830.19;7406820;19;1214;-64
2022/11/06 08:13:32;;;;;;;;;;;;;;;21.02;70.39;100844.94;7406426;19;1858;-64
2022/11/06 08:16:01;;;;;;;;;;;;;;;21.10;69.60;100841.50;7406721;19;1888;-64
2022/11/06 08:18:29;;;;;;;;;;;;;;;21.09;69.94;100839.84;7407362;19;988;-61
2022/11/06 08:20:57;;;;;;;;;;;;;;;21.08;70.28;100848.88;7406581;19;1472;-65
2022/11/06 08:23:29;;;;;;;;;;;;;;;21.10;69.59;100854.13;7407643;19;1310;-64
2022/11/06 08:25:58;;;;;;;;;;;;;;;21.08;69.89;100842.66;7406645;19;1421;-65
2022/11/06 08:28:26;;;;;;;;;;;;;;;21.07;69.53;100836.44;7406752;19;1429;-65
2022/11/06 08:30:55;;;;;;;;;;;;;;;21.12;69.14;100844.91;7405217;19;1878;-61
2022/11/06 08:33:24;;;;;;;;;;;;;;;21.01;69.62;100851.31;7406533;19;1888;-64
2022/11/06 08:35:53;;;;;;;;;;;;;;;21.00;69.29;100852.31;7402689;19;1693;-62
2022/11/06 08:38:21;;;;;;;;;;;;;;;20.98;69.04;100859.66;7403847;19;1498;-64
2022/11/06 08:40:52;;;;;;;;;;;;;;;20.99;67.96;100858.69;7406455;19;1182;-62
2022/11/06 08:43:22;;;;;;;;;;;;;;;21.00;66.15;100862.22;7406951;19;1336;-64
2022/11/06 08:45:51;;;;;;;;;;;;;;;20.93;66.37;100863.78;7403349;19;1341;-64
2022/11/06 08:48:19;;;;;;;;;;;;;;;20.89;66.34;100874.00;7404918;19;1254;-64
2022/11/06 08:50:48;;;;;;;;;;;;;;;20.93;66.78;100859.28;7403943;19;1438;-64
2022/11/06 08:53:16;;;;;;;;;;;;;;;21.03;66.38;100873.53;7403959;19;1857;-64
2022/11/06 08:55:44;;;;;;;;;;;;;;;21.05;66.87;100865.31;7405266;19;1245;-65
2022/11/06 08:58:15;;;;;;;;;;;;;;;21.08;66.99;100866.88;7406149;19;1249;-62
2022/11/06 09:00:44;;;;;;;;;;;;;;;21.05;67.47;100871.53;7405687;19;1296;-62
2022/11/06 09:03:13;;;;;;;;;;;;;;;21.11;67.96;100880.88;7402679;19;1296;-63
2022/11/06 09:05:42;;;;;;;;;;;;;;;21.17;67.78;100874.91;7405495;19;1400;-67
2022/11/06 09:08:11;;;;;;;;;;;;;;;21.12;67.80;100877.16;7404560;19;1064;-67
2022/11/06 09:10:40;;;;;;;;;;;;;;;21.17;68.48;100879.41;7405625;19;1621;-65
2022/11/06 09:13:08;;;;;;;;;;;;;;;21.17;68.55;100876.72;7405385;19;1864;-62
2022/11/06 09:15:40;;;;;;;;;;;;;;;21.22;68.06;100875.28;7399470;19;1253;-64
2022/11/06 09:18:08;;;;;;;;;;;;;;;21.25;68.66;100882.25;7402044;19;1062;-63
2022/11/06 09:20:37;;;;;;;;;;;;;;;21.14;68.17;100885.94;7404164;19;1344;-65
2022/11/06 09:23:06;;;;;;;;;;;;;;;21.18;68.35;100881.13;7403753;19;1345;-63
2022/11/06 09:25:34;;;;;;;;;;;;;;;21.24;68.53;100885.91;7402653;19;1292;-65
2022/11/06 09:28:03;;;;;;;;;;;;;;;21.25;68.40;100879.53;7405412;19;1352;-62
2022/11/06 09:30:32;;;;;;;;;;;;;;;21.22;68.51;100877.13;7404064;19;1771;-61
2022/11/06 09:33:04;;;;;;;;;;;;;;;21.21;68.40;100876.31;7403886;19;1865;-63
2022/11/06 09:35:35;;;;;;;;;;;;;;;21.22;68.52;100877.13;7402674;19;1194;-63
2022/11/06 09:38:04;;;;;;;;;;;;;;;21.19;68.67;100858.63;7405468;19;1464;-64
2022/11/06 09:40:34;;;;;;;;;;;;;;;21.27;68.32;100872.19;7402017;19;1532;-63
2022/11/06 09:43:08;;;;;;;;;;;;;;;21.33;68.18;100854.56;7401713;19;1160;-66
2022/11/06 09:45:39;;;;;;;;;;;;;;;21.38;68.71;100866.59;7405151;19;1303;-64
2022/11/06 09:48:15;;;;;;;;;;;;;;;21.41;68.43;100855.53;7406040;19;986;-64
2022/11/06 09:50:47;;;;;;;;;;;;;;;21.39;68.43;100867.47;7403938;19;1353;-64
2022/11/06 09:53:21;;;;;;;;;;;;;;;21.28;68.59;100841.56;7402600;19;1858;-64
2022/11/06 09:55:50;;;;;;;;;;;;;;;21.18;68.74;100852.38;7403796;19;1461;-64
2022/11/06 09:58:21;;;;;;;;;;;;;;;21.16;68.75;100851.69;7404623;19;1472;-64
2022/11/06 10:00:52;;;;;;;;;;;;;;;21.14;68.43;100855.53;7402536;19;1542;-64
2022/11/06 10:03:25;;;;;;;;;;;;;;;21.13;68.42;100840.38;7405303;19;1384;-64
2022/11/06 10:05:54;;;;;;;;;;;;;;;21.11;68.51;100823.53;7401588;19;1748;-64
2022/11/06 10:08:24;;;;;;;;;;;;;;;21.12;68.22;100844.06;7402642;19;1304;-63
2022/11/06 10:10:59;;;;;;;;;;;;;;;21.09;68.03;100833.59;7403053;19;1426;-64
2022/11/06 10:13:35;;;;;;;;;;;;;;;21.09;67.99;100818.31;7401767;19;1856;-64
2022/11/06 10:16:07;;;;;;;;;;;;;;;21.08;67.88;100837.28;7402387;19;1357;-64
2022/11/06 10:18:44;;;;;;;;;;;;;;;21.10;67.66;100829.91;7403847;19;1083;-64
2022/11/06 10:21:17;;;;;;;;;;;;;;;21.09;67.92;100831.78;7404141;19;1665;-64
2022/11/06 10:23:48;;;;;;;;;;;;;;;21.10;67.61;100813.78;7397501;19;1601;-63
2022/11/06 10:26:18;;;;;;;;;;;;;;;21.11;67.74;100836.97;7404265;19;1306;-63
2022/11/06 10:29:02;;;;;;;;;;;;;;;21.14;67.59;100834.84;7403896;19;1525;-64
2022/11/06 10:31:35;;;;;;;;;;;;;;;21.17;67.32;100814.88;7403742;19;1542;-64
2022/11/06 10:34:09;;;;;;;;;;;;;;;21.19;67.54;100812.91;7406181;19;1846;-64
2022/11/06 10:36:41;;;;;;;;;;;;;;;21.24;67.00;100803.38;7411069;19;1677;-64
2022/11/06 10:39:14;;;;;;;;;;;;;;;21.15;67.08;100823.09;7409605;19;1457;-66
2022/11/06 10:41:45;;;;;;;;;;;;;;;21.19;66.15;100792.22;7409015;19;1468;-64
2022/11/06 10:44:17;;;;;;;;;;;;;;;21.15;64.22;100795.34;7407013;19;1618;-62
2022/11/06 10:46:48;;;;;;;;;;;;;;;21.17;62.73;100787.97;7408918;19;1550;-62
2022/11/06 10:49:25;;;;;;;;;;;;;;;21.10;61.59;100797.66;7409221;19;1264;-61
2022/11/06 10:51:59;;;;;;;;;;;;;;;21.08;61.74;100778.13;7408039;19;1303;-61
2022/11/06 10:54:33;;;;;;;;;;;;;;;21.19;61.04;100794.91;7407114;19;1863;-63
2022/11/06 10:57:16;;;;;;;;;;;;;;;21.09;60.66;100782.50;7410118;19;1677;-63
2022/11/06 10:59:45;;;;;;;;;;;;;;;21.15;60.61;100795.34;7411564;19;1069;-57
2022/11/06 11:02:23;;;;;;;;;;;;;;;20.96;58.07;100790.91;7410490;19;1661;-61
2022/11/06 11:04:54;;;;;;;;;;;;;;;20.91;59.38;100804.81;7409767;19;1419;-60
2022/11/06 11:07:22;;;;;;;;;;;;;;;20.88;57.54;100805.09;7409045;19;1300;-62
2022/11/06 11:09:51;;;;;;;;;;;;;;;20.79;56.44;100804.16;7409625;19;1399;-64
2022/11/06 11:12:24;;;;;;;;;;;;;;;20.77;56.36;100802.56;7407762;19;1427;-64
2022/11/06 11:15:16;;;;;;;;;;;;;;;20.83;57.14;100775.09;7407765;19;1845;-65
2022/11/06 11:17:45;;;;;;;;;;;;;;;20.79;56.72;100787.16;7408589;19;1160;-64
2022/11/06 11:20:28;;;;;;;;;;;;;;;20.95;57.96;100773.94;7405922;19;1401;-65
2022/11/06 11:23:09;;;;;;;;;;;;;;;20.98;59.42;100789.78;7406952;19;1563;-65
2022/11/06 11:25:37;;;;;;;;;;;;;;;21.12;58.45;100782.22;7405556;19;1332;-62
2022/11/06 11:28:06;;;;;;;;;;;;;;;21.18;58.64;100790.53;7405408;19;1406;-62
2022/11/06 11:30:34;;;;;;;;;;;;;;;21.18;59.50;100785.16;7408660;19;1363;-61
2022/11/06 11:33:12;;;;;;;;;;;;;;;21.24;60.42;100784.53;7408076;19;1845;-65
2022/11/06 11:35:41;;;;;;;;;;;;;;;21.32;60.79;100782.97;7407925;19;1673;-65
2022/11/06 11:38:15;;;;;;;;;;;;;;;21.38;61.07;100788.56;7408354;19;1691;-64
2022/11/06 11:40:43;;;;;;;;;;;;;;;21.42;61.82;100797.19;7408302;19;1363;-63
2022/11/06 11:43:23;;;;;;;;;;;;;;;21.41;62.02;100784.75;7409073;19;1238;-63
2022/11/06 11:46:13;;;;;;;;;;;;;;;21.41;62.42;100809.81;7408022;19;1476;-64
2022/11/06 11:48:45;;;;;;;;;;;;;;;21.41;62.28;100785.59;7409098;19;1490;-62
2022/11/06 11:51:29;;;;;;;;;;;;;;;21.41;62.41;100769.47;7409032;19;1656;-62
2022/11/06 11:54:01;;;;;;;;;;;;;;;21.33;62.51;100777.44;7407002;19;1860;-61
2022/11/06 11:56:30;;;;;;;;;;;;;;;21.34;62.35;100783.66;7408890;19;1620;-61
2022/11/06 11:59:00;;;;;;;;;;;;;;;21.31;62.17;100774.06;7409293;19;1578;-61
2022/11/06 12:01:36;;;;;;;;;;;;;;;21.32;62.18;100775.72;7407816;19;1275;-61
2022/11/06 12:04:09;;;;;;;;;;;;;;;21.30;62.42;100780.41;7408617;19;1801;-63
2022/11/06 12:06:38;;;;;;;;;;;;;;;21.18;62.43;100784.31;7406466;19;1524;-64
2022/11/06 12:09:09;;;;;;;;;;;;;;;21.19;62.15;100776.09;7408236;19;1472;-61
2022/11/06 12:11:37;;;;;;;;;;;;;;;21.15;61.75;100788.16;7407189;19;1680;-60
2022/11/06 12:14:19;;;;;;;;;;;;;;;21.15;62.78;100789.97;7407332;19;1878;-61
2022/11/06 12:16:50;;;;;;;;;;;;;;;21.10;62.19;100786.91;7408012;19;1410;-60
2022/11/06 12:19:20;;;;;;;;;;;;;;;21.09;62.39;100777.13;7408819;19;983;-61
2022/11/06 12:21:53;;;;;;;;;;;;;;;21.04;63.03;100786.47;7408915;19;1252;-61
2022/11/06 12:24:25;;;;;;;;;;;;;;;21.08;63.14;100778.13;7407270;19;1672;-63
2022/11/06 12:26:56;;;;;;;;;;;;;;;21.11;62.97;100777.81;7407268;19;1775;-61
2022/11/06 12:29:27;;;;;;;;;;;;;;;21.12;62.78;100782.22;7406845;19;1665;-63
2022/11/06 12:32:00;;;;;;;;;;;;;;;21.10;63.61;100789.59;7407793;19;1248;-61
2022/11/06 12:34:33;;;;;;;;;;;;;;;21.04;63.50;100767.66;7407218;19;1861;-60
2022/11/06 12:37:11;;;;;;;;;;;;;;;21.02;63.73;100779.56;7401245;19;1185;-62
2022/11/06 12:39:45;;;;;;;;;;;;;;;21.06;63.73;100791.72;7401357;19;1473;-62
2022/11/06 12:42:14;;;;;;;;;;;;;;;21.19;64.14;100802.16;7405786;19;1129;-63
2022/11/06 12:44:42;;;;;;;;;;;;;;;21.16;64.11;100807.81;6377576;19;10000714;-61
2022/11/06 12:47:19;;;;;;;;;;;;;;;21.05;64.41;100800.81;7385803;19;1439;-63
2022/11/06 12:50:05;;;;;;;;;;;;;;;20.99;64.22;100790.59;7397436;19;1582;-61
2022/11/06 12:52:40;;;;;;;;;;;;;;;21.00;64.14;100790.47;7399364;19;1622;-61
2022/11/06 12:55:19;;;;;;;;;;;;;;;21.02;64.37;100799.22;7397757;19;1863;-61
2022/11/06 12:57:58;;;;;;;;;;;;;;;20.95;64.45;100790.09;7395214;19;1321;-62
2022/11/06 13:00:27;;;;;;;;;;;;;;;20.97;63.80;100801.53;7400913;19;1329;-62
2022/11/06 13:03:13;;;;;;;;;;;;;;;21.04;63.79;100794.56;7400763;19;1633;-62
2022/11/06 13:05:45;;;;;;;;;;;;;;;21.02;63.62;100791.16;7395120;19;1705;-61
2022/11/06 13:08:16;;;;;;;;;;;;;;;21.05;63.66;100801.63;7396351;19;1392;-61
2022/11/06 13:10:53;;;;;;;;;;;;;;;21.05;64.34;100815.09;7398539;19;1223;-62
2022/11/06 13:13:35;;;;;;;;;;;;;;;20.97;64.47;100809.59;7398163;19;1476;-62
2022/11/06 13:16:09;;;;;;;;;;;;;;;20.96;64.66;100807.88;6880179;19;10000332;-61
2022/11/06 13:18:39;;;;;;;;;;;;;;;20.96;64.70;100807.06;7399047;19;1289;-62
2022/11/06 13:21:10;;;;;;;;;;;;;;;20.93;64.40;100805.50;7400207;19;1418;-62
2022/11/06 13:23:40;;;;;;;;;;;;;;;20.93;64.72;100807.34;7400479;19;1629;-62